Time;durP1;ratioP1;P1;durP2;ratioP2;P2;SDS_P1;SDS_P2;PMS_P1;PMS_P2;Temp;Humidity;BMP_temperature;BMP_pressure;BME280_temperature;BME280_humidity;BME280_pressure;Samples;Min_cycle;Max_cycle;Signal;HPM_P1;HPM_P2
2023/12/13 00:01:16;;;;;;;2.45;1.08;;;8.60;99.90;;;;;;6251839;22;20024;-89
2023/12/13 00:03:44;;;;;;;2.90;1.00;;;8.60;99.90;;;;;;6251727;22;20078;-90
2023/12/13 00:06:13;;;;;;;4.00;1.00;;;8.60;99.90;;;;;;6276452;22;20499;-89
2023/12/13 00:08:40;;;;;;;2.63;1.05;;;8.60;99.90;;;;;;6251932;22;20102;-89
2023/12/13 00:11:08;;;;;;;2.20;0.77;;;8.60;99.90;;;;;;6250745;22;20472;-84
2023/12/13 00:13:35;;;;;;;2.70;0.55;;;8.60;99.90;;;;;;6301170;22;20433;-83
2023/12/13 00:16:02;;;;;;;1.92;0.80;;;8.60;99.90;;;;;;6250069;22;20028;-83
2023/12/13 00:18:30;;;;;;;1.27;0.60;;;8.60;99.90;;;;;;6301498;22;20020;-84
2023/12/13 00:20:57;;;;;;;0.77;0.40;;;8.60;99.90;;;;;;6275644;22;20031;-83
2023/12/13 00:23:24;;;;;;;1.98;0.73;;;8.60;99.90;;;;;;6250165;22;20022;-84
2023/12/13 00:25:51;;;;;;;1.83;0.88;;;8.50;99.90;;;;;;6250075;22;20069;-84
2023/12/13 00:28:19;;;;;;;1.35;0.63;;;8.50;99.90;;;;;;6250208;22;20026;-83
2023/12/13 00:30:46;;;;;;;1.75;0.70;;;8.50;99.90;;;;;;6275650;22;20016;-83
2023/12/13 00:33:13;;;;;;;1.20;0.55;;;8.50;99.90;;;;;;6251572;22;20077;-89
2023/12/13 00:35:40;;;;;;;2.00;0.77;;;8.40;99.90;;;;;;6251149;22;20476;-89
2023/12/13 00:38:08;;;;;;;2.40;0.70;;;8.40;99.90;;;;;;6250924;22;20024;-89
2023/12/13 00:40:36;;;;;;;1.77;0.63;;;8.40;99.90;;;;;;6251301;22;20461;-89
2023/12/13 00:43:05;;;;;;;1.42;0.60;;;8.50;99.90;;;;;;6251320;22;20024;-89
2023/12/13 00:45:33;;;;;;;1.85;0.70;;;8.40;99.90;;;;;;6226820;22;20019;-89
2023/12/13 00:48:00;;;;;;;2.80;0.50;;;8.50;99.90;;;;;;6250805;22;20020;-88
2023/12/13 00:50:28;;;;;;;3.30;1.30;;;8.50;99.90;;;;;;6250962;22;20019;-88
2023/12/13 00:52:57;;;;;;;2.95;0.70;;;8.40;99.90;;;;;;6251918;22;20516;-89
2023/12/13 00:55:25;;;;;;;2.55;1.00;;;8.40;99.90;;;;;;6251409;22;20082;-88
2023/12/13 00:57:52;;;;;;;5.75;1.23;;;8.40;99.90;;;;;;6251242;22;20023;-83
2023/12/13 01:00:20;;;;;;;4.15;1.08;;;8.50;99.90;;;;;;6250346;22;20043;-84
2023/12/13 01:02:47;;;;;;;3.60;0.98;;;8.50;99.90;;;;;;6275177;22;20087;-84
2023/12/13 01:05:14;;;;;;;3.58;2.10;;;8.60;99.90;;;;;;6249661;22;20024;-84
2023/12/13 01:07:44;;;;;;;2.75;1.52;;;8.50;99.90;;;;;;6250457;22;20019;-84
2023/12/13 01:10:13;;;;;;;3.72;1.20;;;8.50;99.90;;;;;;6275334;22;20042;-84
2023/12/13 01:12:43;;;;;;;1.95;0.82;;;8.50;99.90;;;;;;6249771;22;20058;-84
2023/12/13 01:15:10;;;;;;;3.08;0.80;;;8.50;99.90;;;;;;6275449;22;20019;-84
2023/12/13 01:17:37;;;;;;;2.33;1.05;;;8.50;99.90;;;;;;6275375;22;20040;-84
2023/12/13 01:20:11;;;;;;;1.33;0.52;;;8.50;99.90;;;;;;6274590;22;20067;-84
2023/12/13 01:22:38;;;;;;;2.58;0.75;;;8.40;99.90;;;;;;6250443;22;20099;-84
2023/12/13 01:25:06;;;;;;;2.78;1.20;;;8.40;99.90;;;;;;6275569;22;20449;-84
2023/12/13 01:27:33;;;;;;;1.85;0.65;;;8.40;99.90;;;;;;6249963;22;20027;-83
2023/12/13 01:30:01;;;;;;;3.45;0.95;;;8.40;99.90;;;;;;6249951;22;20107;-83
2023/12/13 01:32:30;;;;;;;1.60;0.73;;;8.40;99.90;;;;;;6250251;22;20365;-83
2023/12/13 01:34:57;;;;;;;3.05;1.13;;;8.40;99.90;;;;;;6250578;22;20023;-83
2023/12/13 01:37:25;;;;;;;1.38;0.50;;;8.40;99.90;;;;;;6250057;22;20098;-83
2023/12/13 01:39:56;;;;;;;2.15;0.90;;;8.40;99.90;;;;;;6274840;22;20442;-83
2023/12/13 01:42:23;;;;;;;1.75;0.70;;;8.40;99.90;;;;;;6250687;22;20019;-84
2023/12/13 01:44:51;;;;;;;1.60;0.70;;;8.40;99.90;;;;;;6249635;22;20074;-84
2023/12/13 01:47:18;;;;;;;1.20;0.50;;;8.40;99.90;;;;;;6249536;22;20020;-83
2023/12/13 01:49:45;;;;;;;1.63;0.80;;;8.40;99.90;;;;;;6249891;22;20022;-84
2023/12/13 01:52:14;;;;;;;1.80;0.77;;;8.40;99.90;;;;;;6249648;22;20019;-84
2023/12/13 01:54:42;;;;;;;3.38;1.00;;;8.40;99.90;;;;;;6275472;22;20050;-84
2023/12/13 01:57:10;;;;;;;2.10;0.70;;;8.40;99.90;;;;;;6249422;22;20030;-83
2023/12/13 01:59:37;;;;;;;2.22;0.77;;;8.40;99.90;;;;;;6249642;22;20078;-84
2023/12/13 02:02:05;;;;;;;1.70;0.65;;;8.50;99.90;;;;;;6249902;22;20023;-83
2023/12/13 02:04:35;;;;;;;0.73;0.43;;;8.50;99.90;;;;;;6249785;22;20028;-83
2023/12/13 02:07:02;;;;;;;1.50;0.50;;;8.50;99.90;;;;;;6276820;22;20046;-88
2023/12/13 02:09:29;;;;;;;1.33;0.50;;;8.50;99.90;;;;;;6277016;22;20016;-88
2023/12/13 02:11:57;;;;;;;1.08;0.40;;;8.50;99.90;;;;;;6251524;22;20020;-88
2023/12/13 02:14:25;;;;;;;1.50;0.50;;;8.50;99.90;;;;;;6251839;22;20090;-88
2023/12/13 02:16:53;;;;;;;1.38;0.50;;;8.60;99.90;;;;;;6252753;22;20019;-88
2023/12/13 02:19:20;;;;;;;1.80;0.60;;;8.60;99.90;;;;;;6253378;22;20019;-88
2023/12/13 02:21:47;;;;;;;1.55;0.60;;;8.60;99.90;;;;;;6278790;22;20016;-88
2023/12/13 02:24:15;;;;;;;2.05;0.40;;;8.60;99.90;;;;;;6253016;22;20102;-88
2023/12/13 02:26:43;;;;;;;0.73;0.35;;;8.60;99.90;;;;;;6277407;22;20020;-88
2023/12/13 02:29:15;;;;;;;0.80;0.40;;;8.60;99.90;;;;;;6277782;22;20102;-89
2023/12/13 02:31:44;;;;;;;1.73;0.43;;;8.60;99.90;;;;;;6252383;22;20020;-88
2023/12/13 02:34:11;;;;;;;2.00;0.50;;;8.60;99.90;;;;;;6278298;22;20016;-88
2023/12/13 02:36:38;;;;;;;0.77;0.28;;;8.60;99.90;;;;;;6252512;22;20043;-88
2023/12/13 02:39:05;;;;;;;1.50;0.30;;;8.70;99.90;;;;;;6252140;22;20023;-88
2023/12/13 02:41:32;;;;;;;0.70;0.30;;;8.70;99.90;;;;;;6251139;22;20111;-84
2023/12/13 02:44:00;;;;;;;2.13;0.32;;;8.70;99.90;;;;;;6251425;22;20019;-84
2023/12/13 02:46:28;;;;;;;1.00;0.30;;;8.70;99.90;;;;;;6276572;22;20094;-84
2023/12/13 02:48:58;;;;;;;1.60;0.30;;;8.70;99.90;;;;;;6251548;22;20354;-84
2023/12/13 02:51:26;;;;;;;0.38;0.20;;;8.70;99.90;;;;;;6251316;22;20019;-84
2023/12/13 02:53:53;;;;;;;0.93;0.30;;;8.70;99.90;;;;;;6276347;22;20016;-84
2023/12/13 02:56:20;;;;;;;0.22;0.20;;;8.70;99.90;;;;;;6251514;22;20107;-84
2023/12/13 02:58:47;;;;;;;1.48;0.40;;;8.70;99.90;;;;;;6251040;22;20023;-85
2023/12/13 03:01:14;;;;;;;0.45;0.22;;;8.70;99.90;;;;;;6276774;22;20073;-85
2023/12/13 03:03:45;;;;;;;1.25;0.30;;;8.70;99.90;;;;;;6251436;22;20074;-84
2023/12/13 03:06:12;;;;;;;0.50;0.38;;;8.80;99.90;;;;;;6275827;22;20019;-84
2023/12/13 03:08:39;;;;;;;1.73;0.30;;;8.70;99.90;;;;;;6249753;22;20020;-84
2023/12/13 03:11:10;;;;;;;0.63;0.30;;;8.70;99.90;;;;;;6250882;22;20019;-83
2023/12/13 03:13:37;;;;;;;1.02;0.30;;;8.80;99.90;;;;;;6251384;22;20465;-84
2023/12/13 03:16:06;;;;;;;0.57;0.20;;;8.70;99.90;;;;;;6251192;22;20047;-84
2023/12/13 03:18:33;;;;;;;0.63;0.30;;;8.80;99.90;;;;;;6276451;22;20353;-84
2023/12/13 03:21:00;;;;;;;1.77;0.40;;;8.80;99.90;;;;;;6227253;22;20023;-88
2023/12/13 03:23:30;;;;;;;0.93;0.30;;;8.80;99.90;;;;;;6252846;22;20385;-88
2023/12/13 03:25:57;;;;;;;1.00;0.30;;;8.70;99.90;;;;;;6251735;22;20417;-88
2023/12/13 03:28:24;;;;;;;1.75;0.28;;;8.80;99.90;;;;;;6251789;22;20022;-89
2023/12/13 03:30:51;;;;;;;0.45;0.20;;;8.80;99.90;;;;;;6251842;22;20012;-88
2023/12/13 03:33:18;;;;;;;1.35;0.28;;;8.70;99.90;;;;;;6251825;22;20023;-88
2023/12/13 03:35:46;;;;;;;0.40;0.17;;;8.80;99.90;;;;;;6252214;22;20023;-88
2023/12/13 03:38:13;;;;;;;0.93;0.30;;;8.70;99.90;;;;;;6251246;22;20020;-85
2023/12/13 03:40:40;;;;;;;1.33;0.35;;;8.80;99.90;;;;;;6276432;22;20015;-84
2023/12/13 03:43:07;;;;;;;1.17;0.40;;;8.70;99.90;;;;;;6251019;22;20026;-84
2023/12/13 03:45:34;;;;;;;1.15;0.40;;;8.80;99.90;;;;;;6250964;22;20026;-84
2023/12/13 03:48:01;;;;;;;0.95;0.35;;;8.70;99.90;;;;;;6250979;22;20042;-85
2023/12/13 03:50:28;;;;;;;1.48;0.40;;;8.70;99.90;;;;;;6250647;22;20024;-84
2023/12/13 03:52:55;;;;;;;0.70;0.30;;;8.80;99.90;;;;;;6250788;22;20023;-84
2023/12/13 03:55:22;;;;;;;1.75;0.50;;;8.80;99.90;;;;;;6251711;22;20094;-84
2023/12/13 03:57:49;;;;;;;1.35;0.40;;;8.80;99.90;;;;;;6251156;22;20051;-84
2023/12/13 04:00:17;;;;;;;0.70;0.40;;;8.80;99.90;;;;;;6276183;22;20024;-85
2023/12/13 04:02:44;;;;;;;1.08;0.40;;;8.80;99.90;;;;;;6250709;22;20024;-84
2023/12/13 04:05:12;;;;;;;1.40;0.60;;;8.80;99.90;;;;;;6250904;22;20024;-84
2023/12/13 04:07:39;;;;;;;1.20;0.45;;;8.80;99.90;;;;;;6275867;22;20016;-84
2023/12/13 04:10:07;;;;;;;1.23;0.52;;;8.80;99.90;;;;;;6251136;22;20016;-86
2023/12/13 04:12:34;;;;;;;1.50;0.50;;;8.80;99.90;;;;;;6276491;22;20027;-84
2023/12/13 04:15:01;;;;;;;1.45;0.60;;;8.80;99.90;;;;;;6250764;22;20020;-85
2023/12/13 04:17:28;;;;;;;2.25;0.73;;;8.80;99.90;;;;;;6250519;22;20106;-85
2023/12/13 04:19:57;;;;;;;3.90;0.93;;;8.80;99.90;;;;;;6250509;22;20030;-85
2023/12/13 04:22:24;;;;;;;1.40;0.63;;;8.80;99.90;;;;;;6276285;22;20024;-85
2023/12/13 04:24:51;;;;;;;1.65;0.60;;;8.80;99.90;;;;;;6250808;22;20346;-85
2023/12/13 04:27:18;;;;;;;3.60;1.42;;;8.80;99.90;;;;;;6250126;22;20023;-85
2023/12/13 04:29:48;;;;;;;2.63;1.02;;;8.80;99.90;;;;;;6250718;22;20042;-85
2023/12/13 04:32:15;;;;;;;2.28;0.90;;;8.80;99.90;;;;;;6250267;22;20019;-85
2023/12/13 04:34:42;;;;;;;3.50;1.05;;;8.80;99.90;;;;;;6250391;22;20016;-85
2023/12/13 04:37:10;;;;;;;2.83;1.05;;;8.80;99.90;;;;;;6275724;22;20031;-85
2023/12/13 04:39:37;;;;;;;2.72;1.20;;;8.80;99.90;;;;;;6249990;22;20513;-85
2023/12/13 04:42:08;;;;;;;1.67;0.88;;;8.80;99.90;;;;;;6275773;22;20023;-85
2023/12/13 04:44:35;;;;;;;2.22;1.10;;;8.80;99.90;;;;;;6276277;22;20077;-85
2023/12/13 04:47:05;;;;;;;4.45;1.40;;;8.80;99.90;;;;;;6250540;22;20020;-85
2023/12/13 04:49:34;;;;;;;2.58;1.10;;;8.90;99.90;;;;;;6249985;22;20457;-85
2023/12/13 04:52:01;;;;;;;2.13;1.08;;;8.90;99.90;;;;;;6275365;22;20014;-85
2023/12/13 04:54:29;;;;;;;2.65;1.20;;;8.90;99.90;;;;;;6249443;22;20024;-85
2023/12/13 04:56:56;;;;;;;1.73;0.80;;;8.80;99.90;;;;;;6275610;22;20024;-85
2023/12/13 04:59:24;;;;;;;3.20;1.05;;;8.90;99.90;;;;;;6251026;22;20034;-85
2023/12/13 05:01:51;;;;;;;1.80;0.80;;;8.80;99.90;;;;;;6276049;22;20030;-85
2023/12/13 05:04:18;;;;;;;2.08;0.80;;;8.90;99.90;;;;;;6250738;22;20019;-85
2023/12/13 05:06:46;;;;;;;3.03;1.17;;;8.90;99.90;;;;;;6276621;22;20020;-85
2023/12/13 05:09:13;;;;;;;2.50;0.90;;;8.90;99.90;;;;;;6249906;22;20019;-85
2023/12/13 05:11:40;;;;;;;3.78;1.05;;;8.90;99.90;;;;;;6249801;22;20023;-85
2023/12/13 05:14:07;;;;;;;1.88;0.95;;;8.90;99.90;;;;;;6250298;22;20441;-85
2023/12/13 05:16:34;;;;;;;2.03;0.70;;;8.90;99.90;;;;;;6249792;22;20030;-85
2023/12/13 05:19:02;;;;;;;1.55;0.68;;;8.90;99.90;;;;;;6275460;22;20093;-85
2023/12/13 05:21:29;;;;;;;2.10;0.70;;;8.90;99.90;;;;;;6250344;22;20078;-86
2023/12/13 05:23:56;;;;;;;2.75;1.00;;;8.90;99.90;;;;;;6250250;22;20047;-85
2023/12/13 05:26:24;;;;;;;2.15;0.85;;;8.90;99.90;;;;;;6250223;22;20027;-85
2023/12/13 05:28:51;;;;;;;2.03;0.73;;;8.90;99.90;;;;;;6250394;22;20154;-85
2023/12/13 05:31:22;;;;;;;1.77;0.73;;;8.90;99.90;;;;;;6249947;22;20445;-86
2023/12/13 05:33:50;;;;;;;3.25;0.90;;;8.90;99.90;;;;;;6275765;22;20049;-85
2023/12/13 05:36:17;;;;;;;2.47;0.88;;;8.90;99.90;;;;;;6275579;22;20464;-86
2023/12/13 05:38:44;;;;;;;2.42;0.85;;;8.90;99.90;;;;;;6275797;22;20026;-85
2023/12/13 05:41:13;;;;;;;2.17;0.80;;;8.90;99.90;;;;;;6251046;22;20381;-85
2023/12/13 05:43:40;;;;;;;1.65;0.80;;;8.90;99.90;;;;;;6250561;22;20012;-85
2023/12/13 05:46:08;;;;;;;2.20;0.70;;;8.90;99.90;;;;;;6275929;22;20016;-86
2023/12/13 05:48:35;;;;;;;1.98;0.90;;;8.90;99.90;;;;;;6275685;22;20087;-86
2023/12/13 05:51:03;;;;;;;2.05;0.90;;;8.90;99.90;;;;;;6252089;22;20016;-86
2023/12/13 05:53:31;;;;;;;1.27;0.65;;;8.90;99.90;;;;;;6252410;22;20046;-86
2023/12/13 05:56:00;;;;;;;1.98;1.00;;;8.90;99.90;;;;;;6252945;22;20103;-86
2023/12/13 05:58:27;;;;;;;2.13;0.90;;;8.90;99.90;;;;;;6252719;22;20023;-86
2023/12/13 06:00:54;;;;;;;3.17;0.85;;;9.00;99.90;;;;;;6252229;22;20024;-86
2023/12/13 06:03:21;;;;;;;2.30;0.90;;;9.00;99.90;;;;;;6251863;22;20020;-86
2023/12/13 06:05:48;;;;;;;4.25;0.98;;;9.00;99.90;;;;;;6252683;22;20019;-86
2023/12/13 06:08:17;;;;;;;1.88;0.82;;;9.00;99.90;;;;;;6252278;22;20038;-86
2023/12/13 06:10:44;;;;;;;4.80;1.58;;;9.00;99.90;;;;;;6252026;22;20020;-86
2023/12/13 06:13:12;;;;;;;2.95;1.30;;;8.90;99.90;;;;;;6252281;22;20098;-86
2023/12/13 06:15:39;;;;;;;3.60;1.48;;;9.00;99.90;;;;;;6252599;22;20445;-86
2023/12/13 06:18:06;;;;;;;3.47;1.10;;;8.90;99.90;;;;;;6252083;22;20023;-86
2023/12/13 06:20:33;;;;;;;3.80;1.00;;;9.00;99.90;;;;;;6251671;22;20027;-85
2023/12/13 06:23:00;;;;;;;3.08;1.35;;;8.90;99.90;;;;;;6251903;22;20033;-85
2023/12/13 06:25:28;;;;;;;3.22;0.93;;;9.00;99.90;;;;;;6303362;22;20054;-85
2023/12/13 06:27:55;;;;;;;5.20;1.67;;;9.00;99.90;;;;;;6251736;22;20016;-86
2023/12/13 06:30:22;;;;;;;3.78;1.38;;;8.90;99.90;;;;;;6251826;22;20011;-86
2023/12/13 06:32:49;;;;;;;3.15;1.38;;;8.90;99.90;;;;;;6277827;22;20042;-86
2023/12/13 06:35:16;;;;;;;2.70;1.10;;;9.00;99.90;;;;;;6252321;22;20065;-87
2023/12/13 06:37:43;;;;;;;3.05;1.30;;;8.90;99.90;;;;;;6251546;22;20070;-86
2023/12/13 06:40:14;;;;;;;2.58;1.00;;;9.00;99.90;;;;;;6251386;22;20093;-86
2023/12/13 06:42:42;;;;;;;2.40;0.93;;;8.90;99.90;;;;;;6252140;22;20026;-86
2023/12/13 06:45:10;;;;;;;3.50;0.98;;;8.90;99.90;;;;;;6252000;22;20027;-86
2023/12/13 06:47:37;;;;;;;1.52;0.80;;;9.00;99.90;;;;;;6276997;22;20026;-87
2023/12/13 06:50:05;;;;;;;2.65;0.90;;;9.00;99.90;;;;;;6252789;22;20395;-87
2023/12/13 06:52:32;;;;;;;2.70;0.88;;;9.00;99.90;;;;;;6277788;22;20020;-86
2023/12/13 06:54:59;;;;;;;2.05;0.70;;;9.00;99.90;;;;;;6251957;22;20027;-87
2023/12/13 06:57:26;;;;;;;2.25;1.00;;;9.00;99.90;;;;;;6251556;22;20525;-87
2023/12/13 06:59:53;;;;;;;2.15;0.93;;;8.90;99.90;;;;;;6251970;22;20430;-87
2023/12/13 07:02:20;;;;;;;3.03;0.93;;;9.00;99.90;;;;;;6251558;22;20430;-86
2023/12/13 07:04:47;;;;;;;2.67;1.05;;;9.00;99.90;;;;;;6251558;22;20054;-87
2023/12/13 07:07:15;;;;;;;4.13;1.10;;;9.00;99.90;;;;;;6251296;22;20026;-87
2023/12/13 07:09:45;;;;;;;3.47;1.23;;;9.00;99.90;;;;;;6251858;22;20016;-87
2023/12/13 07:12:13;;;;;;;3.08;1.00;;;9.00;99.90;;;;;;6248683;22;20023;-87
2023/12/13 07:14:40;;;;;;;3.05;1.02;;;9.00;99.90;;;;;;6276921;22;20023;-86
2023/12/13 07:17:07;;;;;;;2.13;0.80;;;9.00;99.90;;;;;;6251858;22;20026;-87
2023/12/13 07:19:34;;;;;;;2.25;0.77;;;9.00;99.90;;;;;;6251737;22;20019;-86
2023/12/13 07:22:01;;;;;;;2.30;0.82;;;9.00;99.90;;;;;;6251766;22;20030;-87
2023/12/13 07:24:28;;;;;;;3.20;0.85;;;9.00;99.90;;;;;;6251556;22;20017;-86
2023/12/13 07:26:55;;;;;;;2.95;1.00;;;9.00;99.90;;;;;;6252892;22;20030;-86
2023/12/13 07:29:23;;;;;;;2.83;1.25;;;9.00;99.90;;;;;;6302147;22;20020;-85
2023/12/13 07:31:50;;;;;;;3.10;1.23;;;9.00;99.90;;;;;;6251301;22;20036;-86
2023/12/13 07:34:18;;;;;;;5.15;1.20;;;9.00;99.90;;;;;;6251330;22;20020;-86
2023/12/13 07:36:53;;;;;;;4.75;0.82;;;9.00;99.90;;;;;;6251471;22;20026;-86
2023/12/13 07:39:20;;;;;;;2.67;0.93;;;9.00;99.90;;;;;;6252900;22;20020;-86
2023/12/13 07:41:47;;;;;;;2.72;0.95;;;9.00;99.90;;;;;;6276790;22;20046;-86
2023/12/13 07:44:14;;;;;;;2.42;1.10;;;9.10;99.90;;;;;;6251264;22;20101;-87
2023/12/13 07:46:41;;;;;;;1.90;0.75;;;9.00;99.90;;;;;;6251108;22;20027;-87
2023/12/13 07:49:09;;;;;;;2.92;0.90;;;9.00;99.90;;;;;;6276680;22;20012;-87
2023/12/13 07:51:36;;;;;;;2.45;1.00;;;9.10;99.90;;;;;;6251097;22;20126;-87
2023/12/13 07:54:03;;;;;;;2.88;1.02;;;9.10;99.90;;;;;;6275984;22;20019;-87
2023/12/13 07:56:30;;;;;;;3.25;0.98;;;9.10;99.90;;;;;;6250843;22;20024;-87
2023/12/13 07:58:58;;;;;;;4.63;1.02;;;9.10;99.90;;;;;;6250967;22;20110;-87
2023/12/13 08:01:27;;;;;;;3.35;1.20;;;9.10;99.90;;;;;;6251374;22;20023;-87
2023/12/13 08:03:56;;;;;;;3.22;0.90;;;9.10;99.90;;;;;;6250799;22;20095;-87
2023/12/13 08:06:23;;;;;;;2.25;0.95;;;9.10;99.90;;;;;;6250869;22;20454;-87
2023/12/13 08:08:51;;;;;;;2.40;0.70;;;9.10;99.90;;;;;;6275883;22;20348;-88
2023/12/13 08:11:18;;;;;;;2.28;0.80;;;9.20;99.90;;;;;;6276652;22;20433;-87
2023/12/13 08:13:47;;;;;;;2.33;0.70;;;9.10;99.90;;;;;;6250419;22;20020;-88
2023/12/13 08:16:14;;;;;;;2.28;0.85;;;9.10;99.90;;;;;;6250532;22;20024;-88
2023/12/13 08:18:41;;;;;;;3.15;0.98;;;9.10;99.90;;;;;;6250983;22;20028;-86
2023/12/13 08:21:09;;;;;;;3.20;0.80;;;9.20;99.90;;;;;;6250925;22;20127;-86
2023/12/13 08:23:36;;;;;;;3.25;1.20;;;9.20;99.90;;;;;;6276300;22;20050;-86
2023/12/13 08:26:03;;;;;;;3.42;0.75;;;9.20;99.90;;;;;;6277263;22;20019;-87
2023/12/13 08:28:30;;;;;;;3.67;1.35;;;9.20;99.90;;;;;;6251462;22;20055;-84
2023/12/13 08:30:58;;;;;;;3.65;1.15;;;9.20;99.90;;;;;;6251298;22;20057;-88
2023/12/13 08:33:43;;;;;;;2.40;1.05;;;9.20;99.90;;;;;;6254789;22;20102;-86
2023/12/13 08:36:13;;;;;;;5.15;1.65;;;9.20;99.90;;;;;;6276195;22;20020;-87
2023/12/13 08:38:40;;;;;;;4.28;1.23;;;9.20;99.90;;;;;;6251600;22;20020;-87
2023/12/13 08:41:09;;;;;;;4.70;1.60;;;9.20;99.90;;;;;;6275980;22;20028;-87
2023/12/13 08:43:36;;;;;;;3.08;1.58;;;9.20;99.90;;;;;;6276322;22;20026;-84
2023/12/13 08:46:03;;;;;;;4.05;1.42;;;9.20;99.90;;;;;;6275538;22;20410;-83
2023/12/13 08:48:31;;;;;;;3.92;1.30;;;9.20;99.90;;;;;;6300898;22;20371;-83
2023/12/13 08:50:58;;;;;;;1.90;0.90;;;9.30;99.90;;;;;;6250225;22;20020;-83
2023/12/13 08:53:26;;;;;;;2.78;1.05;;;9.30;99.90;;;;;;6275322;22;20074;-82
2023/12/13 08:55:53;;;;;;;2.75;0.95;;;9.30;99.90;;;;;;6250567;22;20027;-86
2023/12/13 08:58:20;;;;;;;2.47;0.80;;;9.30;99.90;;;;;;6250043;22;20073;-86
2023/12/13 09:00:47;;;;;;;4.25;1.38;;;9.30;99.90;;;;;;6276087;22;20106;-85
2023/12/13 09:03:14;;;;;;;2.58;0.90;;;9.30;99.90;;;;;;6275485;22;20047;-84
2023/12/13 09:05:41;;;;;;;3.30;1.10;;;9.30;99.90;;;;;;6275653;22;20027;-84
2023/12/13 09:08:11;;;;;;;3.20;1.10;;;9.30;99.90;;;;;;6250091;22;20043;-84
2023/12/13 09:10:38;;;;;;;2.28;1.05;;;9.40;99.90;;;;;;6275596;22;20102;-84
2023/12/13 09:18:11;;;;;;;1.52;0.70;;;9.40;99.90;;;;;;6277014;22;20088;-87
2023/12/13 09:20:38;;;;;;;3.83;1.27;;;9.40;99.90;;;;;;6224822;22;20023;-87
2023/12/13 09:23:06;;;;;;;2.95;1.27;;;9.40;99.90;;;;;;6224817;22;20442;-87
2023/12/13 09:25:33;;;;;;;1.90;0.90;;;9.50;99.90;;;;;;6202148;22;20020;-86
2023/12/13 09:28:02;;;;;;;2.22;0.90;;;9.50;99.90;;;;;;6226896;22;20024;-87
2023/12/13 09:30:28;;;;;;;1.75;0.80;;;9.50;99.90;;;;;;6226908;22;20026;-87
2023/12/13 09:32:56;;;;;;;2.92;0.90;;;9.60;99.90;;;;;;6227086;22;20073;-86
2023/12/13 09:35:23;;;;;;;2.78;1.08;;;9.50;99.90;;;;;;6227370;22;20023;-87
2023/12/13 09:37:51;;;;;;;3.88;0.80;;;9.60;99.90;;;;;;6227022;22;20030;-87
2023/12/13 09:40:19;;;;;;;2.08;0.88;;;9.60;99.90;;;;;;6227795;22;20024;-86
2023/12/13 09:42:47;;;;;;;2.90;1.00;;;9.60;99.90;;;;;;6226968;22;20024;-87
2023/12/13 09:45:20;;;;;;;2.67;0.85;;;9.60;99.90;;;;;;6226779;22;20016;-87
2023/12/13 09:47:51;;;;;;;2.83;1.08;;;9.60;99.90;;;;;;6252557;22;20019;-87
2023/12/13 09:50:22;;;;;;;4.57;1.52;;;9.60;99.90;;;;;;6252108;22;20015;-86
2023/12/13 09:52:50;;;;;;;4.65;1.35;;;9.60;99.90;;;;;;6227676;22;20026;-87
2023/12/13 09:55:17;;;;;;;2.65;0.90;;;9.60;99.90;;;;;;6227148;22;20099;-87
2023/12/13 09:57:46;;;;;;;3.00;1.30;;;9.60;99.90;;;;;;6226786;22;20046;-87
2023/12/13 10:00:13;;;;;;;2.75;1.05;;;9.60;99.90;;;;;;6251485;22;20019;-87
2023/12/13 10:02:41;;;;;;;3.78;1.15;;;9.70;99.90;;;;;;6226549;22;20020;-87
2023/12/13 10:05:10;;;;;;;2.83;1.05;;;9.60;99.90;;;;;;6226266;22;20023;-87
2023/12/13 10:07:41;;;;;;;2.88;1.10;;;9.70;99.90;;;;;;6252799;22;20043;-87
2023/12/13 10:10:09;;;;;;;2.33;0.77;;;9.70;99.90;;;;;;6252972;22;20434;-87
2023/12/13 10:12:40;;;;;;;2.42;1.00;;;9.70;99.90;;;;;;6226653;22;20015;-87
2023/12/13 10:15:09;;;;;;;3.58;1.17;;;9.70;99.90;;;;;;6273264;22;20099;-87
2023/12/13 10:17:37;;;;;;;2.15;0.80;;;9.70;99.90;;;;;;6302695;22;20069;-87
2023/12/13 10:20:07;;;;;;;3.03;1.13;;;9.70;99.90;;;;;;6276907;22;20433;-86
2023/12/13 10:22:36;;;;;;;3.80;1.50;;;9.70;99.90;;;;;;6251783;22;20338;-87
2023/12/13 10:25:05;;;;;;;3.13;1.27;;;9.70;99.90;;;;;;6252496;22;20020;-86
2023/12/13 10:27:32;;;;;;;3.42;1.50;;;9.70;99.90;;;;;;6251367;22;20050;-86
2023/12/13 10:30:01;;;;;;;4.80;1.60;;;9.70;99.90;;;;;;6277370;22;20468;-86
2023/12/13 10:32:29;;;;;;;3.70;1.63;;;9.70;99.90;;;;;;6276739;22;20492;-86
2023/12/13 10:34:56;;;;;;;3.72;1.08;;;9.70;99.90;;;;;;6251436;22;20042;-84
2023/12/13 10:37:27;;;;;;;4.18;1.70;;;9.70;99.90;;;;;;6251044;22;20034;-85
2023/12/13 10:39:59;;;;;;;3.95;1.65;;;9.70;99.90;;;;;;6251050;22;20442;-85
2023/12/13 10:42:27;;;;;;;4.85;1.75;;;9.60;99.90;;;;;;6251624;22;20024;-85
2023/12/13 10:44:54;;;;;;;3.60;1.02;;;9.60;99.90;;;;;;6276368;22;20031;-85
2023/12/13 10:47:23;;;;;;;4.07;1.30;;;9.60;99.90;;;;;;6251174;22;20027;-90
2023/12/13 10:49:55;;;;;;;2.55;1.10;;;9.70;99.90;;;;;;6252359;22;20500;-89
2023/12/13 10:52:26;;;;;;;3.00;1.40;;;9.70;99.90;;;;;;6277553;22;20507;-89
2023/12/13 10:54:55;;;;;;;4.72;1.60;;;9.70;99.90;;;;;;6252544;22;20028;-88
2023/12/13 10:57:23;;;;;;;2.47;0.98;;;9.70;99.90;;;;;;6277657;22;20023;-91
2023/12/13 10:59:51;;;;;;;3.40;1.00;;;9.70;99.90;;;;;;6252580;22;20051;-89
2023/12/13 11:02:19;;;;;;;2.47;1.08;;;9.70;99.90;;;;;;6251745;22;20023;-87
2023/12/13 11:04:47;;;;;;;2.63;1.10;;;9.60;99.90;;;;;;6276864;22;20026;-88
2023/12/13 11:07:17;;;;;;;2.33;0.90;;;9.70;99.90;;;;;;6276982;22;20023;-88
2023/12/13 11:09:50;;;;;;;1.88;0.70;;;9.70;99.90;;;;;;6253520;22;20464;-87
2023/12/13 11:12:18;;;;;;;3.25;1.17;;;9.70;99.90;;;;;;6251727;22;20015;-87
2023/12/13 11:14:52;;;;;;;3.65;1.33;;;9.70;99.90;;;;;;6251474;22;20074;-87
2023/12/13 11:17:21;;;;;;;2.95;1.00;;;9.70;99.90;;;;;;6276810;22;20442;-88
2023/12/13 11:19:51;;;;;;;2.03;0.70;;;9.70;99.90;;;;;;6252103;22;20020;-88
2023/12/13 11:22:25;;;;;;;2.45;0.90;;;9.70;99.90;;;;;;6302514;22;20024;-88
2023/12/13 11:25:10;;;;;;;2.13;0.90;;;9.70;99.90;;;;;;6277043;22;20749;-88
2023/12/13 11:27:53;;;;;;;2.78;0.77;;;9.70;99.90;;;;;;6276354;22;20118;-88
2023/12/13 11:30:21;;;;;;;1.63;0.63;;;9.70;99.90;;;;;;6276609;22;20381;-87
2023/12/13 11:32:49;;;;;;;3.50;1.00;;;9.60;99.90;;;;;;6302525;22;20019;-87
2023/12/13 11:35:18;;;;;;;1.10;0.50;;;9.60;99.90;;;;;;6276543;22;20438;-86
2023/12/13 11:37:51;;;;;;;1.50;0.50;;;9.60;99.90;;;;;;6251253;22;20049;-88
2023/12/13 11:40:19;;;;;;;1.13;0.50;;;9.60;99.90;;;;;;6276638;22;20020;-88
2023/12/13 11:42:47;;;;;;;1.30;0.50;;;9.60;99.90;;;;;;6301739;22;20023;-88
2023/12/13 11:45:20;;;;;;;0.85;0.45;;;9.60;99.90;;;;;;6251057;22;20024;-88
2023/12/13 11:47:49;;;;;;;2.38;0.85;;;9.60;99.90;;;;;;6275962;22;20461;-85
2023/12/13 11:50:19;;;;;;;1.30;0.50;;;9.50;99.90;;;;;;6276429;22;20391;-84
2023/12/13 11:52:47;;;;;;;0.63;0.30;;;9.50;99.90;;;;;;6276576;22;20390;-83
2023/12/13 11:55:17;;;;;;;3.15;0.35;;;9.50;99.90;;;;;;6250937;22;20113;-87
2023/12/13 11:57:49;;;;;;;1.23;0.40;;;9.40;99.90;;;;;;6276144;22;20020;-89
2023/12/13 12:00:20;;;;;;;0.77;0.30;;;9.40;99.90;;;;;;6275107;22;20492;-87
2023/12/13 12:03:07;;;;;;;1.05;0.40;;;9.40;99.90;;;;;;6225460;22;20023;-94
2023/12/13 12:05:36;;;;;;;1.77;0.40;;;9.40;99.90;;;;;;6252625;22;20103;-90
2023/12/13 12:08:06;;;;;;;0.73;0.20;;;9.40;99.90;;;;;;6251770;22;20469;-90
2023/12/13 12:10:42;;;;;;;1.58;0.40;;;9.30;99.90;;;;;;6251240;22;20103;-91
2023/12/13 12:13:10;;;;;;;1.33;0.50;;;9.30;99.90;;;;;;6225423;22;20134;-91
2023/12/13 12:15:45;;;;;;;1.65;0.50;;;9.30;99.90;;;;;;6250539;22;20079;-92
2023/12/13 12:18:56;;;;;;;1.80;0.40;;;9.30;99.90;;;;;;6227522;22;20024;-91
2023/12/13 12:21:23;;;;;;;1.48;0.60;;;9.30;99.90;;;;;;6276107;22;20456;-92
2023/12/13 12:24:01;;;;;;;0.70;0.30;;;9.20;99.90;;;;;;6227802;22;20023;-89
2023/12/13 12:26:28;;;;;;;0.90;0.30;;;9.20;99.90;;;;;;6249991;22;20023;-86
2023/12/13 12:28:55;;;;;;;1.77;0.40;;;9.20;99.90;;;;;;6224878;22;20020;-85
2023/12/13 12:31:25;;;;;;;1.45;0.45;;;9.20;99.90;;;;;;6235163;22;20098;-85
2023/12/13 12:33:56;;;;;;;1.40;0.40;;;9.20;99.90;;;;;;6301195;22;20011;-83
2023/12/13 12:36:24;;;;;;;1.40;0.40;;;9.20;99.90;;;;;;6275767;22;20027;-88
2023/12/13 12:38:53;;;;;;;0.73;0.30;;;9.20;99.90;;;;;;6275853;22;20446;-89
2023/12/13 12:41:24;;;;;;;1.35;0.57;;;9.20;99.90;;;;;;6276058;22;20069;-88
2023/12/13 12:44:02;;;;;;;;;;;;;;;;;;;;;
2023/12/13 12:46:43;;;;;;;0.93;0.38;;;9.20;99.90;;;;;;6278525;22;20405;-92
2023/12/13 12:49:14;;;;;;;1.92;0.50;;;9.20;99.90;;;;;;6251512;22;20024;-91
2023/12/13 12:51:47;;;;;;;;;;;9.20;99.90;;;;;;6277909;22;20020;-90
2023/12/13 12:54:14;;;;;;;1.50;0.40;;;9.20;99.90;;;;;;6276668;22;20356;-89
2023/12/13 12:56:44;;;;;;;1.25;0.60;;;9.20;99.90;;;;;;6276760;22;20023;-89
2023/12/13 12:59:15;;;;;;;1.17;0.47;;;9.20;99.90;;;;;;6315762;22;20473;-90
2023/12/13 13:01:44;;;;;;;1.75;0.70;;;9.20;99.90;;;;;;6264043;22;20024;-90
2023/12/13 13:04:14;;;;;;;1.15;0.47;;;9.20;99.90;;;;;;6279744;22;20027;-89
2023/12/13 13:06:47;;;;;;;2.33;0.60;;;9.20;99.90;;;;;;6279875;22;20103;-90
2023/12/13 13:09:17;;;;;;;1.88;0.55;;;9.20;99.90;;;;;;6318389;22;20024;-89